sensor_id;sensor_type;location;lat;lon;timestamp;temperature;humidity
21047;DHT22;10682;50.874;3.656;2023-05-10T00:01:02;13.00;99.90
21047;DHT22;10682;50.874;3.656;2023-05-10T00:03:29;13.00;99.90
21047;DHT22;10682;50.874;3.656;2023-05-10T00:05:56;13.00;99.90
21047;DHT22;10682;50.874;3.656;2023-05-10T00:08:23;13.00;99.90
21047;DHT22;10682;50.874;3.656;2023-05-10T00:10:50;13.00;99.90
21047;DHT22;10682;50.874;3.656;2023-05-10T00:13:17;13.00;99.90
21047;DHT22;10682;50.874;3.656;2023-05-10T00:15:44;13.00;99.90
21047;DHT22;10682;50.874;3.656;2023-05-10T00:18:11;13.00;99.90
21047;DHT22;10682;50.874;3.656;2023-05-10T00:20:38;13.00;99.90
21047;DHT22;10682;50.874;3.656;2023-05-10T00:23:05;13.00;99.90
21047;DHT22;10682;50.874;3.656;2023-05-10T00:25:32;13.00;99.90
21047;DHT22;10682;50.874;3.656;2023-05-10T00:27:59;13.00;99.90
21047;DHT22;10682;50.874;3.656;2023-05-10T00:30:27;13.00;99.90
21047;DHT22;10682;50.874;3.656;2023-05-10T00:32:54;13.00;99.90
21047;DHT22;10682;50.874;3.656;2023-05-10T00:35:21;13.00;99.90
21047;DHT22;10682;50.874;3.656;2023-05-10T00:37:49;13.00;99.90
21047;DHT22;10682;50.874;3.656;2023-05-10T00:40:16;13.00;99.90
21047;DHT22;10682;50.874;3.656;2023-05-10T00:42:43;13.00;99.90
21047;DHT22;10682;50.874;3.656;2023-05-10T00:45:10;12.90;99.90
21047;DHT22;10682;50.874;3.656;2023-05-10T00:47:38;12.90;99.90
21047;DHT22;10682;50.874;3.656;2023-05-10T00:50:06;12.90;99.90
21047;DHT22;10682;50.874;3.656;2023-05-10T00:52:33;12.90;99.90
21047;DHT22;10682;50.874;3.656;2023-05-10T00:55:00;12.90;99.90
21047;DHT22;10682;50.874;3.656;2023-05-10T00:57:27;12.90;99.90
21047;DHT22;10682;50.874;3.656;2023-05-10T00:59:55;12.90;99.90
21047;DHT22;10682;50.874;3.656;2023-05-10T01:02:22;12.90;99.90
21047;DHT22;10682;50.874;3.656;2023-05-10T01:04:49;12.80;99.90
21047;DHT22;10682;50.874;3.656;2023-05-10T01:07:16;12.80;99.90
21047;DHT22;10682;50.874;3.656;2023-05-10T01:09:43;12.80;99.90
21047;DHT22;10682;50.874;3.656;2023-05-10T01:12:11;12.80;99.90
21047;DHT22;10682;50.874;3.656;2023-05-10T01:14:38;12.80;99.90
21047;DHT22;10682;50.874;3.656;2023-05-10T01:17:06;12.80;99.90
21047;DHT22;10682;50.874;3.656;2023-05-10T01:19:34;12.80;99.90
21047;DHT22;10682;50.874;3.656;2023-05-10T01:34:16;12.80;99.90
21047;DHT22;10682;50.874;3.656;2023-05-10T01:36:52;12.80;99.90
21047;DHT22;10682;50.874;3.656;2023-05-10T01:39:32;12.80;99.90
21047;DHT22;10682;50.874;3.656;2023-05-10T01:42:14;12.80;99.90
21047;DHT22;10682;50.874;3.656;2023-05-10T01:47:29;12.80;99.90
21047;DHT22;10682;50.874;3.656;2023-05-10T01:50:02;12.70;99.90
21047;DHT22;10682;50.874;3.656;2023-05-10T01:52:38;12.80;99.90
21047;DHT22;10682;50.874;3.656;2023-05-10T01:55:11;12.80;99.90
21047;DHT22;10682;50.874;3.656;2023-05-10T01:57:44;12.80;99.90
21047;DHT22;10682;50.874;3.656;2023-05-10T02:00:12;12.80;99.90
21047;DHT22;10682;50.874;3.656;2023-05-10T02:02:44;12.80;99.90
21047;DHT22;10682;50.874;3.656;2023-05-10T02:05:14;12.80;99.90
21047;DHT22;10682;50.874;3.656;2023-05-10T02:07:42;12.80;99.90
21047;DHT22;10682;50.874;3.656;2023-05-10T02:10:10;12.80;99.90
21047;DHT22;10682;50.874;3.656;2023-05-10T02:12:42;12.80;99.90
21047;DHT22;10682;50.874;3.656;2023-05-10T02:15:12;12.90;99.90
21047;DHT22;10682;50.874;3.656;2023-05-10T02:17:42;12.90;99.90
21047;DHT22;10682;50.874;3.656;2023-05-10T02:20:10;12.90;99.90
21047;DHT22;10682;50.874;3.656;2023-05-10T02:22:39;12.90;99.90
21047;DHT22;10682;50.874;3.656;2023-05-10T02:25:08;12.90;99.90
21047;DHT22;10682;50.874;3.656;2023-05-10T02:27:37;12.90;99.90
21047;DHT22;10682;50.874;3.656;2023-05-10T02:30:06;13.00;99.90
21047;DHT22;10682;50.874;3.656;2023-05-10T02:32:34;13.00;99.90
21047;DHT22;10682;50.874;3.656;2023-05-10T02:35:03;12.90;99.90
21047;DHT22;10682;50.874;3.656;2023-05-10T02:37:30;13.00;99.90
21047;DHT22;10682;50.874;3.656;2023-05-10T02:39:59;12.90;99.90
21047;DHT22;10682;50.874;3.656;2023-05-10T02:42:27;12.90;99.90
21047;DHT22;10682;50.874;3.656;2023-05-10T02:45:11;13.00;99.90
21047;DHT22;10682;50.874;3.656;2023-05-10T02:47:39;12.90;99.90
21047;DHT22;10682;50.874;3.656;2023-05-10T02:50:07;12.90;99.90
21047;DHT22;10682;50.874;3.656;2023-05-10T02:52:42;12.90;99.90
21047;DHT22;10682;50.874;3.656;2023-05-10T02:55:13;12.90;99.90
21047;DHT22;10682;50.874;3.656;2023-05-10T02:57:52;13.00;99.90
21047;DHT22;10682;50.874;3.656;2023-05-10T03:00:25;12.90;99.90
21047;DHT22;10682;50.874;3.656;2023-05-10T03:02:52;12.90;99.90
21047;DHT22;10682;50.874;3.656;2023-05-10T03:05:20;12.90;99.90
21047;DHT22;10682;50.874;3.656;2023-05-10T03:07:47;12.90;99.90
21047;DHT22;10682;50.874;3.656;2023-05-10T03:10:14;12.90;99.90
21047;DHT22;10682;50.874;3.656;2023-05-10T03:16:07;12.90;99.90
21047;DHT22;10682;50.874;3.656;2023-05-10T03:18:54;12.90;99.90
21047;DHT22;10682;50.874;3.656;2023-05-10T03:21:29;12.80;99.90
21047;DHT22;10682;50.874;3.656;2023-05-10T03:24:08;12.80;99.90
21047;DHT22;10682;50.874;3.656;2023-05-10T03:26:38;12.80;99.90
21047;DHT22;10682;50.874;3.656;2023-05-10T03:29:08;12.70;99.90
21047;DHT22;10682;50.874;3.656;2023-05-10T03:31:35;12.70;99.90
21047;DHT22;10682;50.874;3.656;2023-05-10T03:34:02;12.70;99.90
21047;DHT22;10682;50.874;3.656;2023-05-10T03:36:29;12.70;99.90
21047;DHT22;10682;50.874;3.656;2023-05-10T03:38:56;12.60;99.90
21047;DHT22;10682;50.874;3.656;2023-05-10T03:41:23;12.50;99.90
21047;DHT22;10682;50.874;3.656;2023-05-10T03:43:51;12.50;99.90
21047;DHT22;10682;50.874;3.656;2023-05-10T03:46:18;12.50;99.90
21047;DHT22;10682;50.874;3.656;2023-05-10T03:48:45;12.50;99.90
21047;DHT22;10682;50.874;3.656;2023-05-10T03:51:12;12.50;99.90
21047;DHT22;10682;50.874;3.656;2023-05-10T03:53:39;12.40;99.90
21047;DHT22;10682;50.874;3.656;2023-05-10T03:56:06;12.40;99.90
21047;DHT22;10682;50.874;3.656;2023-05-10T03:58:33;12.40;99.90
21047;DHT22;10682;50.874;3.656;2023-05-10T04:01:00;12.40;99.90
21047;DHT22;10682;50.874;3.656;2023-05-10T04:03:27;12.30;99.90
21047;DHT22;10682;50.874;3.656;2023-05-10T04:06:01;12.30;99.90
21047;DHT22;10682;50.874;3.656;2023-05-10T04:08:28;12.30;99.90
21047;DHT22;10682;50.874;3.656;2023-05-10T04:11:08;12.30;99.90
21047;DHT22;10682;50.874;3.656;2023-05-10T04:13:36;12.20;99.90
21047;DHT22;10682;50.874;3.656;2023-05-10T04:16:04;12.30;99.90
21047;DHT22;10682;50.874;3.656;2023-05-10T04:18:32;12.20;99.90
21047;DHT22;10682;50.874;3.656;2023-05-10T04:20:59;12.20;99.90
21047;DHT22;10682;50.874;3.656;2023-05-10T04:23:27;12.10;99.90
21047;DHT22;10682;50.874;3.656;2023-05-10T04:26:01;12.20;99.90
21047;DHT22;10682;50.874;3.656;2023-05-10T04:28:28;12.20;99.90
21047;DHT22;10682;50.874;3.656;2023-05-10T04:31:07;12.10;99.90
21047;DHT22;10682;50.874;3.656;2023-05-10T04:33:36;12.10;99.90
21047;DHT22;10682;50.874;3.656;2023-05-10T04:36:03;12.10;99.90
21047;DHT22;10682;50.874;3.656;2023-05-10T04:38:31;12.10;99.90
21047;DHT22;10682;50.874;3.656;2023-05-10T04:41:08;12.10;99.90
21047;DHT22;10682;50.874;3.656;2023-05-10T04:43:37;12.10;99.90
21047;DHT22;10682;50.874;3.656;2023-05-10T04:46:05;12.10;99.90
21047;DHT22;10682;50.874;3.656;2023-05-10T04:48:32;12.10;99.90
21047;DHT22;10682;50.874;3.656;2023-05-10T04:51:00;12.10;99.90
21047;DHT22;10682;50.874;3.656;2023-05-10T04:53:27;12.10;99.90
21047;DHT22;10682;50.874;3.656;2023-05-10T04:55:54;12.10;99.90
21047;DHT22;10682;50.874;3.656;2023-05-10T04:58:21;12.20;99.90
21047;DHT22;10682;50.874;3.656;2023-05-10T05:00:48;12.20;99.90
21047;DHT22;10682;50.874;3.656;2023-05-10T05:03:15;12.20;99.90
21047;DHT22;10682;50.874;3.656;2023-05-10T05:05:43;12.20;99.90
21047;DHT22;10682;50.874;3.656;2023-05-10T05:08:11;12.20;99.90
21047;DHT22;10682;50.874;3.656;2023-05-10T05:10:38;12.20;99.90
21047;DHT22;10682;50.874;3.656;2023-05-10T05:13:05;12.30;99.90
21047;DHT22;10682;50.874;3.656;2023-05-10T05:15:32;12.30;99.90
21047;DHT22;10682;50.874;3.656;2023-05-10T05:17:59;12.30;99.90
21047;DHT22;10682;50.874;3.656;2023-05-10T05:20:26;12.30;99.90
21047;DHT22;10682;50.874;3.656;2023-05-10T05:22:54;12.30;99.90
21047;DHT22;10682;50.874;3.656;2023-05-10T05:25:21;12.40;99.90
21047;DHT22;10682;50.874;3.656;2023-05-10T05:27:48;12.30;99.90
21047;DHT22;10682;50.874;3.656;2023-05-10T05:30:15;12.30;99.90
21047;DHT22;10682;50.874;3.656;2023-05-10T05:32:42;12.30;99.90
21047;DHT22;10682;50.874;3.656;2023-05-10T05:35:09;12.40;99.90
21047;DHT22;10682;50.874;3.656;2023-05-10T05:37:36;12.40;99.90
21047;DHT22;10682;50.874;3.656;2023-05-10T05:40:04;12.40;99.90
21047;DHT22;10682;50.874;3.656;2023-05-10T05:42:32;12.40;99.90
21047;DHT22;10682;50.874;3.656;2023-05-10T05:44:59;12.30;99.90
21047;DHT22;10682;50.874;3.656;2023-05-10T05:47:26;12.30;99.90
21047;DHT22;10682;50.874;3.656;2023-05-10T05:49:53;12.30;99.90
21047;DHT22;10682;50.874;3.656;2023-05-10T05:52:20;12.20;99.90
21047;DHT22;10682;50.874;3.656;2023-05-10T05:54:47;12.20;99.90
21047;DHT22;10682;50.874;3.656;2023-05-10T05:57:14;12.20;99.90
21047;DHT22;10682;50.874;3.656;2023-05-10T05:59:41;12.20;99.90
21047;DHT22;10682;50.874;3.656;2023-05-10T06:02:10;12.20;99.90
21047;DHT22;10682;50.874;3.656;2023-05-10T06:04:38;12.30;99.90
21047;DHT22;10682;50.874;3.656;2023-05-10T06:07:08;12.30;99.90
21047;DHT22;10682;50.874;3.656;2023-05-10T06:09:35;12.30;99.90
21047;DHT22;10682;50.874;3.656;2023-05-10T06:12:02;12.30;99.90
21047;DHT22;10682;50.874;3.656;2023-05-10T06:14:29;12.30;99.90
21047;DHT22;10682;50.874;3.656;2023-05-10T06:16:56;12.40;99.90
21047;DHT22;10682;50.874;3.656;2023-05-10T06:19:23;12.40;99.90
21047;DHT22;10682;50.874;3.656;2023-05-10T06:21:50;12.40;99.90
21047;DHT22;10682;50.874;3.656;2023-05-10T06:24:19;12.50;99.90
21047;DHT22;10682;50.874;3.656;2023-05-10T06:26:46;12.50;99.90
21047;DHT22;10682;50.874;3.656;2023-05-10T06:29:13;12.40;99.90
21047;DHT22;10682;50.874;3.656;2023-05-10T06:31:41;12.40;99.90
21047;DHT22;10682;50.874;3.656;2023-05-10T06:34:08;12.40;99.90
21047;DHT22;10682;50.874;3.656;2023-05-10T06:36:35;12.40;99.90
21047;DHT22;10682;50.874;3.656;2023-05-10T06:39:03;12.50;99.90
21047;DHT22;10682;50.874;3.656;2023-05-10T06:41:30;12.40;99.90
21047;DHT22;10682;50.874;3.656;2023-05-10T06:44:06;12.40;99.90
21047;DHT22;10682;50.874;3.656;2023-05-10T06:46:33;12.40;99.90
21047;DHT22;10682;50.874;3.656;2023-05-10T06:49:00;12.50;99.90
21047;DHT22;10682;50.874;3.656;2023-05-10T06:51:27;12.50;99.90
21047;DHT22;10682;50.874;3.656;2023-05-10T06:53:54;12.50;99.90
21047;DHT22;10682;50.874;3.656;2023-05-10T06:56:21;12.50;99.90
21047;DHT22;10682;50.874;3.656;2023-05-10T06:59:29;12.50;99.90
21047;DHT22;10682;50.874;3.656;2023-05-10T07:01:56;12.60;99.90
21047;DHT22;10682;50.874;3.656;2023-05-10T07:04:23;12.50;99.90
21047;DHT22;10682;50.874;3.656;2023-05-10T07:06:50;12.40;99.90
21047;DHT22;10682;50.874;3.656;2023-05-10T07:09:17;12.50;99.90
21047;DHT22;10682;50.874;3.656;2023-05-10T07:11:44;12.50;99.90
21047;DHT22;10682;50.874;3.656;2023-05-10T07:14:11;12.50;99.90
21047;DHT22;10682;50.874;3.656;2023-05-10T07:16:38;12.60;99.90
21047;DHT22;10682;50.874;3.656;2023-05-10T07:19:05;12.60;99.90
21047;DHT22;10682;50.874;3.656;2023-05-10T07:21:32;12.60;99.90
21047;DHT22;10682;50.874;3.656;2023-05-10T07:23:59;12.60;99.90
21047;DHT22;10682;50.874;3.656;2023-05-10T07:26:27;12.70;99.90
21047;DHT22;10682;50.874;3.656;2023-05-10T07:28:55;12.70;99.90
21047;DHT22;10682;50.874;3.656;2023-05-10T07:31:22;12.70;99.90
21047;DHT22;10682;50.874;3.656;2023-05-10T07:33:49;12.60;99.90
21047;DHT22;10682;50.874;3.656;2023-05-10T07:36:16;12.70;99.90
21047;DHT22;10682;50.874;3.656;2023-05-10T07:38:43;12.70;99.90
21047;DHT22;10682;50.874;3.656;2023-05-10T07:41:11;12.80;99.90
21047;DHT22;10682;50.874;3.656;2023-05-10T07:43:38;12.80;99.90
21047;DHT22;10682;50.874;3.656;2023-05-10T07:46:06;12.70;99.90
21047;DHT22;10682;50.874;3.656;2023-05-10T07:48:34;12.70;99.90
21047;DHT22;10682;50.874;3.656;2023-05-10T07:51:01;12.70;99.90
21047;DHT22;10682;50.874;3.656;2023-05-10T07:53:28;12.70;99.90
21047;DHT22;10682;50.874;3.656;2023-05-10T07:55:57;12.70;99.90
21047;DHT22;10682;50.874;3.656;2023-05-10T07:58:25;12.70;99.90
21047;DHT22;10682;50.874;3.656;2023-05-10T08:00:52;12.70;99.90
21047;DHT22;10682;50.874;3.656;2023-05-10T08:03:19;12.70;99.90
21047;DHT22;10682;50.874;3.656;2023-05-10T08:05:46;12.70;99.90
21047;DHT22;10682;50.874;3.656;2023-05-10T08:08:13;12.80;99.90
21047;DHT22;10682;50.874;3.656;2023-05-10T08:10:40;12.80;99.90
21047;DHT22;10682;50.874;3.656;2023-05-10T08:13:07;12.80;99.90
21047;DHT22;10682;50.874;3.656;2023-05-10T08:15:34;12.80;99.90
21047;DHT22;10682;50.874;3.656;2023-05-10T08:18:02;12.80;99.90
21047;DHT22;10682;50.874;3.656;2023-05-10T08:20:29;12.80;99.90
21047;DHT22;10682;50.874;3.656;2023-05-10T08:22:56;12.90;99.90
21047;DHT22;10682;50.874;3.656;2023-05-10T08:25:23;12.90;99.90
21047;DHT22;10682;50.874;3.656;2023-05-10T08:27:50;12.90;99.90
21047;DHT22;10682;50.874;3.656;2023-05-10T08:30:17;12.90;99.90
21047;DHT22;10682;50.874;3.656;2023-05-10T08:32:44;13.00;99.90
21047;DHT22;10682;50.874;3.656;2023-05-10T08:35:11;13.10;99.90
21047;DHT22;10682;50.874;3.656;2023-05-10T08:37:38;13.10;99.90
21047;DHT22;10682;50.874;3.656;2023-05-10T08:40:05;13.00;99.90
21047;DHT22;10682;50.874;3.656;2023-05-10T08:42:34;13.10;99.90
21047;DHT22;10682;50.874;3.656;2023-05-10T08:45:04;13.20;99.90
21047;DHT22;10682;50.874;3.656;2023-05-10T08:47:36;13.30;99.90
21047;DHT22;10682;50.874;3.656;2023-05-10T08:50:05;13.40;99.90
21047;DHT22;10682;50.874;3.656;2023-05-10T08:52:36;13.40;99.90
21047;DHT22;10682;50.874;3.656;2023-05-10T08:55:05;13.50;99.90
21047;DHT22;10682;50.874;3.656;2023-05-10T08:57:33;13.50;99.90
21047;DHT22;10682;50.874;3.656;2023-05-10T09:00:01;13.50;99.90
21047;DHT22;10682;50.874;3.656;2023-05-10T09:02:29;13.50;99.90
21047;DHT22;10682;50.874;3.656;2023-05-10T09:04:56;13.50;99.90
21047;DHT22;10682;50.874;3.656;2023-05-10T09:07:23;13.50;99.90
21047;DHT22;10682;50.874;3.656;2023-05-10T09:09:50;13.50;99.90
21047;DHT22;10682;50.874;3.656;2023-05-10T09:12:18;13.50;99.90
21047;DHT22;10682;50.874;3.656;2023-05-10T09:14:45;13.40;99.90
21047;DHT22;10682;50.874;3.656;2023-05-10T09:17:13;13.30;99.90
21047;DHT22;10682;50.874;3.656;2023-05-10T09:19:40;13.20;99.90
21047;DHT22;10682;50.874;3.656;2023-05-10T09:22:07;13.20;99.90
21047;DHT22;10682;50.874;3.656;2023-05-10T09:24:34;13.30;99.90
21047;DHT22;10682;50.874;3.656;2023-05-10T09:27:03;13.20;99.90
21047;DHT22;10682;50.874;3.656;2023-05-10T09:29:48;13.30;99.90
21047;DHT22;10682;50.874;3.656;2023-05-10T09:32:19;13.30;99.90
21047;DHT22;10682;50.874;3.656;2023-05-10T09:34:49;13.30;99.90
21047;DHT22;10682;50.874;3.656;2023-05-10T09:37:16;13.30;99.90
21047;DHT22;10682;50.874;3.656;2023-05-10T09:39:43;13.30;99.90
21047;DHT22;10682;50.874;3.656;2023-05-10T09:42:10;13.40;99.90
21047;DHT22;10682;50.874;3.656;2023-05-10T09:44:37;13.50;99.90
21047;DHT22;10682;50.874;3.656;2023-05-10T09:47:05;13.50;99.90
21047;DHT22;10682;50.874;3.656;2023-05-10T09:49:32;13.60;99.90
21047;DHT22;10682;50.874;3.656;2023-05-10T09:52:08;13.70;99.90
21047;DHT22;10682;50.874;3.656;2023-05-10T09:54:35;13.80;99.90
21047;DHT22;10682;50.874;3.656;2023-05-10T09:57:03;13.90;99.90
21047;DHT22;10682;50.874;3.656;2023-05-10T09:59:30;14.00;99.90
21047;DHT22;10682;50.874;3.656;2023-05-10T10:02:00;14.20;99.90
21047;DHT22;10682;50.874;3.656;2023-05-10T10:04:27;14.30;99.90
21047;DHT22;10682;50.874;3.656;2023-05-10T10:07:01;14.40;99.90
21047;DHT22;10682;50.874;3.656;2023-05-10T10:09:31;14.50;99.90
21047;DHT22;10682;50.874;3.656;2023-05-10T10:11:59;14.60;99.90
21047;DHT22;10682;50.874;3.656;2023-05-10T10:14:27;14.60;99.90
21047;DHT22;10682;50.874;3.656;2023-05-10T10:16:54;14.70;99.90
21047;DHT22;10682;50.874;3.656;2023-05-10T10:19:34;14.70;99.90
21047;DHT22;10682;50.874;3.656;2023-05-10T10:22:02;14.70;99.90
21047;DHT22;10682;50.874;3.656;2023-05-10T10:24:30;14.60;99.90
21047;DHT22;10682;50.874;3.656;2023-05-10T10:27:13;14.60;99.90
21047;DHT22;10682;50.874;3.656;2023-05-10T10:30:03;14.60;99.90
21047;DHT22;10682;50.874;3.656;2023-05-10T10:35:55;14.70;99.90
21047;DHT22;10682;50.874;3.656;2023-05-10T10:38:25;14.80;99.90
21047;DHT22;10682;50.874;3.656;2023-05-10T10:55:01;15.10;99.90
21047;DHT22;10682;50.874;3.656;2023-05-10T10:57:48;15.00;99.90
21047;DHT22;10682;50.874;3.656;2023-05-10T11:00:31;14.90;99.90
21047;DHT22;10682;50.874;3.656;2023-05-10T11:03:06;14.90;99.90
21047;DHT22;10682;50.874;3.656;2023-05-10T11:05:44;14.90;99.90
21047;DHT22;10682;50.874;3.656;2023-05-10T11:11:08;14.80;99.90
21047;DHT22;10682;50.874;3.656;2023-05-10T11:13:42;14.90;99.90
21047;DHT22;10682;50.874;3.656;2023-05-10T11:16:19;14.80;99.90
21047;DHT22;10682;50.874;3.656;2023-05-10T11:19:02;14.80;99.90
21047;DHT22;10682;50.874;3.656;2023-05-10T11:21:32;14.70;99.90
21047;DHT22;10682;50.874;3.656;2023-05-10T11:24:01;14.80;99.90
21047;DHT22;10682;50.874;3.656;2023-05-10T11:26:34;14.90;99.90
21047;DHT22;10682;50.874;3.656;2023-05-10T11:29:02;15.00;99.90
21047;DHT22;10682;50.874;3.656;2023-05-10T11:31:31;15.10;99.90
21047;DHT22;10682;50.874;3.656;2023-05-10T11:33:59;15.10;99.90
21047;DHT22;10682;50.874;3.656;2023-05-10T11:36:32;15.20;99.90
21047;DHT22;10682;50.874;3.656;2023-05-10T11:39:00;15.30;99.90
21047;DHT22;10682;50.874;3.656;2023-05-10T11:41:28;15.40;99.90
21047;DHT22;10682;50.874;3.656;2023-05-10T11:43:57;15.50;99.90
21047;DHT22;10682;50.874;3.656;2023-05-10T11:46:27;15.70;99.90
21047;DHT22;10682;50.874;3.656;2023-05-10T11:48:59;15.70;99.90
21047;DHT22;10682;50.874;3.656;2023-05-10T11:51:34;15.70;99.90
21047;DHT22;10682;50.874;3.656;2023-05-10T11:54:07;15.70;99.90
21047;DHT22;10682;50.874;3.656;2023-05-10T11:56:39;15.80;99.90
21047;DHT22;10682;50.874;3.656;2023-05-10T11:59:07;15.80;99.90
21047;DHT22;10682;50.874;3.656;2023-05-10T12:01:35;16.00;99.90
21047;DHT22;10682;50.874;3.656;2023-05-10T12:04:02;16.20;99.90
21047;DHT22;10682;50.874;3.656;2023-05-10T12:06:32;16.30;99.90
21047;DHT22;10682;50.874;3.656;2023-05-10T12:09:06;16.40;99.90
21047;DHT22;10682;50.874;3.656;2023-05-10T12:11:38;16.60;99.90
21047;DHT22;10682;50.874;3.656;2023-05-10T12:14:10;16.80;99.90
21047;DHT22;10682;50.874;3.656;2023-05-10T12:16:37;16.90;99.90
21047;DHT22;10682;50.874;3.656;2023-05-10T12:19:04;17.00;99.90
21047;DHT22;10682;50.874;3.656;2023-05-10T12:21:32;17.50;99.90
21047;DHT22;10682;50.874;3.656;2023-05-10T12:24:02;17.70;99.90
21047;DHT22;10682;50.874;3.656;2023-05-10T12:26:30;17.90;99.90
21047;DHT22;10682;50.874;3.656;2023-05-10T12:31:54;17.80;99.90
21047;DHT22;10682;50.874;3.656;2023-05-10T12:34:42;17.60;99.90
21047;DHT22;10682;50.874;3.656;2023-05-10T12:37:09;17.50;99.90
21047;DHT22;10682;50.874;3.656;2023-05-10T12:39:44;17.30;99.90
21047;DHT22;10682;50.874;3.656;2023-05-10T12:42:12;17.10;99.90
21047;DHT22;10682;50.874;3.656;2023-05-10T12:44:39;17.10;99.90
21047;DHT22;10682;50.874;3.656;2023-05-10T12:47:07;17.00;99.90
21047;DHT22;10682;50.874;3.656;2023-05-10T12:49:34;16.90;99.90
21047;DHT22;10682;50.874;3.656;2023-05-10T12:52:01;16.80;99.90
21047;DHT22;10682;50.874;3.656;2023-05-10T12:54:28;16.70;99.90
21047;DHT22;10682;50.874;3.656;2023-05-10T12:56:55;16.50;99.90
21047;DHT22;10682;50.874;3.656;2023-05-10T12:59:22;16.50;99.90
21047;DHT22;10682;50.874;3.656;2023-05-10T13:01:49;16.40;99.90
21047;DHT22;10682;50.874;3.656;2023-05-10T13:04:16;16.40;99.90
21047;DHT22;10682;50.874;3.656;2023-05-10T13:06:44;16.40;99.90
21047;DHT22;10682;50.874;3.656;2023-05-10T13:09:11;16.20;99.90
21047;DHT22;10682;50.874;3.656;2023-05-10T13:11:38;16.20;99.90
21047;DHT22;10682;50.874;3.656;2023-05-10T13:14:05;16.10;99.90
21047;DHT22;10682;50.874;3.656;2023-05-10T13:16:32;15.90;99.90
21047;DHT22;10682;50.874;3.656;2023-05-10T13:18:59;15.70;99.90
21047;DHT22;10682;50.874;3.656;2023-05-10T13:21:26;15.40;99.90
21047;DHT22;10682;50.874;3.656;2023-05-10T13:23:53;15.30;99.90
21047;DHT22;10682;50.874;3.656;2023-05-10T13:26:20;15.10;99.90
21047;DHT22;10682;50.874;3.656;2023-05-10T13:28:47;14.90;99.90
21047;DHT22;10682;50.874;3.656;2023-05-10T13:31:15;14.70;99.90
21047;DHT22;10682;50.874;3.656;2023-05-10T13:33:42;14.70;99.90
21047;DHT22;10682;50.874;3.656;2023-05-10T13:36:09;14.80;99.90
21047;DHT22;10682;50.874;3.656;2023-05-10T13:38:36;14.90;99.90
21047;DHT22;10682;50.874;3.656;2023-05-10T13:41:04;14.90;99.90
21047;DHT22;10682;50.874;3.656;2023-05-10T13:43:31;15.00;99.90
21047;DHT22;10682;50.874;3.656;2023-05-10T13:45:58;15.30;99.90
21047;DHT22;10682;50.874;3.656;2023-05-10T13:48:25;15.60;99.90
21047;DHT22;10682;50.874;3.656;2023-05-10T13:50:52;15.70;99.90
21047;DHT22;10682;50.874;3.656;2023-05-10T13:53:19;15.80;99.90
21047;DHT22;10682;50.874;3.656;2023-05-10T13:55:46;15.90;99.90
21047;DHT22;10682;50.874;3.656;2023-05-10T13:58:13;16.10;99.90
21047;DHT22;10682;50.874;3.656;2023-05-10T14:00:40;16.10;99.90
21047;DHT22;10682;50.874;3.656;2023-05-10T14:03:07;16.20;99.90
21047;DHT22;10682;50.874;3.656;2023-05-10T14:05:37;16.30;99.90
21047;DHT22;10682;50.874;3.656;2023-05-10T14:08:05;16.50;99.90
21047;DHT22;10682;50.874;3.656;2023-05-10T14:10:32;16.60;99.90
21047;DHT22;10682;50.874;3.656;2023-05-10T14:12:59;16.60;99.90
21047;DHT22;10682;50.874;3.656;2023-05-10T14:15:25;16.60;99.90
21047;DHT22;10682;50.874;3.656;2023-05-10T14:17:53;16.60;99.90
21047;DHT22;10682;50.874;3.656;2023-05-10T14:20:20;16.50;99.90
21047;DHT22;10682;50.874;3.656;2023-05-10T14:22:47;16.40;99.90
21047;DHT22;10682;50.874;3.656;2023-05-10T14:25:14;16.40;99.90
21047;DHT22;10682;50.874;3.656;2023-05-10T14:27:42;16.50;99.90
21047;DHT22;10682;50.874;3.656;2023-05-10T14:30:09;16.50;99.90
21047;DHT22;10682;50.874;3.656;2023-05-10T14:32:36;16.50;99.90
21047;DHT22;10682;50.874;3.656;2023-05-10T14:35:04;16.50;99.90
21047;DHT22;10682;50.874;3.656;2023-05-10T14:37:32;16.40;99.90
21047;DHT22;10682;50.874;3.656;2023-05-10T14:39:59;16.20;99.90
21047;DHT22;10682;50.874;3.656;2023-05-10T14:42:26;16.20;99.90
21047;DHT22;10682;50.874;3.656;2023-05-10T14:44:55;16.20;99.90
21047;DHT22;10682;50.874;3.656;2023-05-10T14:47:21;16.10;99.90
21047;DHT22;10682;50.874;3.656;2023-05-10T14:49:49;16.20;99.90
21047;DHT22;10682;50.874;3.656;2023-05-10T14:52:16;16.30;99.90
21047;DHT22;10682;50.874;3.656;2023-05-10T14:54:43;16.50;99.90
21047;DHT22;10682;50.874;3.656;2023-05-10T14:57:10;16.60;99.90
21047;DHT22;10682;50.874;3.656;2023-05-10T14:59:37;16.60;99.90
21047;DHT22;10682;50.874;3.656;2023-05-10T15:02:04;16.60;99.90
21047;DHT22;10682;50.874;3.656;2023-05-10T15:04:32;16.80;99.90
21047;DHT22;10682;50.874;3.656;2023-05-10T15:06:59;17.00;99.90
21047;DHT22;10682;50.874;3.656;2023-05-10T15:09:27;17.10;99.90
21047;DHT22;10682;50.874;3.656;2023-05-10T15:11:54;17.10;99.90
21047;DHT22;10682;50.874;3.656;2023-05-10T15:14:22;16.90;99.90
21047;DHT22;10682;50.874;3.656;2023-05-10T15:16:49;16.80;99.90
21047;DHT22;10682;50.874;3.656;2023-05-10T15:19:16;16.90;99.90
21047;DHT22;10682;50.874;3.656;2023-05-10T15:21:43;17.00;99.90
21047;DHT22;10682;50.874;3.656;2023-05-10T15:24:11;17.00;99.90
21047;DHT22;10682;50.874;3.656;2023-05-10T15:26:38;17.10;99.90
21047;DHT22;10682;50.874;3.656;2023-05-10T15:29:05;17.30;99.90
21047;DHT22;10682;50.874;3.656;2023-05-10T15:31:32;17.50;99.90
21047;DHT22;10682;50.874;3.656;2023-05-10T15:34:01;17.70;99.90
21047;DHT22;10682;50.874;3.656;2023-05-10T15:36:28;17.70;99.90
21047;DHT22;10682;50.874;3.656;2023-05-10T15:38:55;17.70;99.90
21047;DHT22;10682;50.874;3.656;2023-05-10T15:41:22;17.80;99.90
21047;DHT22;10682;50.874;3.656;2023-05-10T15:43:50;17.80;99.90
21047;DHT22;10682;50.874;3.656;2023-05-10T15:46:17;17.90;99.90
21047;DHT22;10682;50.874;3.656;2023-05-10T15:48:44;17.90;99.90
21047;DHT22;10682;50.874;3.656;2023-05-10T15:51:11;17.90;99.90
21047;DHT22;10682;50.874;3.656;2023-05-10T15:53:38;17.80;99.90
21047;DHT22;10682;50.874;3.656;2023-05-10T15:56:18;17.70;99.90
21047;DHT22;10682;50.874;3.656;2023-05-10T15:58:45;17.70;99.90
21047;DHT22;10682;50.874;3.656;2023-05-10T16:01:12;17.60;99.90
21047;DHT22;10682;50.874;3.656;2023-05-10T16:03:39;17.70;99.90
21047;DHT22;10682;50.874;3.656;2023-05-10T16:06:06;17.70;99.90
21047;DHT22;10682;50.874;3.656;2023-05-10T16:08:33;17.70;99.90
21047;DHT22;10682;50.874;3.656;2023-05-10T16:11:01;17.90;99.90
21047;DHT22;10682;50.874;3.656;2023-05-10T16:13:28;17.90;99.90
21047;DHT22;10682;50.874;3.656;2023-05-10T16:15:56;17.80;99.90
21047;DHT22;10682;50.874;3.656;2023-05-10T16:18:23;17.70;99.90
21047;DHT22;10682;50.874;3.656;2023-05-10T16:20:52;17.50;99.90